Flight Track Log - Related Links

Times and Time Zones

All times are in EST time to prevent confusion due to time zone crossing. See the FLG3861 flight status page for this flight to view local times or setup timezone preferences in your user account.

Time Position Orientation Groundspeed Altitude Reporting Facility
EST Latitude Longitude Course Direction KTS MPH feet Rate Location/Type
Tue 09:54:34 PM 42.2028 -83.3553 174° South 152 175 1,600  Level Cleveland Center
Tue 09:55:04 PM 42.1819 -83.3525 174° South 167 192 3,000 2,360 Climbing Cleveland Center
Tue 09:56:03 PM 42.1325 -83.3383 168° South 185 213 5,100 2,678 Climbing Cleveland Center
Tue 09:57:05 PM 42.0989 -83.2550 119° Southeast 274 315 8,400 2,878 Climbing Cleveland Center
Tue 09:58:06 PM 42.1344 -83.1453 66° East 318 366 11,000 2,066 Climbing Cleveland Center
Tue 09:59:07 PM 42.1769 -83.0194 65° Northeast 376 433 12,600 1,672 Climbing Cleveland Center
Tue 10:00:08 PM 42.2214 -82.8906 65° Northeast 384 442 14,400 1,770 Climbing Cleveland Center
Tue 10:01:09 PM 42.2675 -82.7511 66° East 407 468 16,200 1,659 Climbing Cleveland Center
Tue 10:02:11 PM 42.3153 -82.6092 65° Northeast 415 478 17,800 1,366 Climbing Cleveland Center
Tue 10:03:12 PM 42.3633 -82.4617 66° East 427 491 19,000 1,279 Climbing Cleveland Center
Tue 10:04:13 PM 42.3619 -82.2994 91° East 436 502 20,400 1,366 Climbing Cleveland Center
Tue 10:05:15 PM 42.3539 -82.1206 93° East 436 502 21,800 1,171 Climbing Cleveland Center
Tue 10:06:16 PM 42.3458 -81.9514 94° East 443 510 22,800 590 Climbing Cleveland Center
Tue 10:07:17 PM 42.3389 -81.7742 93° East 463 533 23,000 98 Climbing Cleveland Center
Tue 10:08:18 PM 42.3306 -81.5844 93° East 490 564 23,000  Level Cleveland Center
Tue 10:09:20 PM 42.3219 -81.3908 93° East 506 582 23,000  Level Cleveland Center
Tue 10:10:21 PM 42.3122 -81.1972 94° East 510 587 23,000  Level Cleveland Center
Tue 10:11:22 PM 42.3031 -81.0058 94° East 506 582 23,000  Level Cleveland Center
Tue 10:12:23 PM 42.2922 -80.8147 94° East 504 580 23,000 439 Level Cleveland Center
Tue 10:13:25 PM 42.2822 -80.6269 94° East 498 573 23,900 732 Climbing Cleveland Center
Tue 10:14:26 PM 42.2719 -80.4403 94° East 494 568 24,500 541 Climbing Cleveland Center
Tue 10:15:27 PM 42.2617 -80.2483 94° East 505 581 25,000 246 Climbing Cleveland Center
Tue 10:16:28 PM 42.2467 -80.0161 95° East 523 602 25,000  Level Cleveland Center
Tue 10:17:30 PM 42.2339 -79.8133 95° East 533 613 25,000  Level Cleveland Center
Tue 10:18:31 PM 42.2211 -79.6128 95° East 538 619 25,000  Level Cleveland Center
Tue 10:19:32 PM 42.2083 -79.4117 95° East 540 621 25,000  Level Cleveland Center
Tue 10:20:33 PM 42.1953 -79.2108 95° East 539 620 25,000  Level Cleveland Center
Tue 10:21:34 PM 42.1906 -79.0089 92° East 539 620 25,000  Level Cleveland Center
Tue 10:22:35 PM 42.1961 -78.7942 88° East 535 616 25,000  Level Cleveland Center
Tue 10:23:37 PM 42.1994 -78.5947 89° East 536 617 25,000  Level Cleveland Center
Tue 10:24:38 PM 42.2017 -78.3958 89° East 535 616 25,000  Level Cleveland Center
Tue 10:25:39 PM 42.2036 -78.1967 89° East 535 616 25,000  Level Cleveland Center
Tue 10:26:40 PM 42.2064 -78.0022 89° East 528 608 25,000 -246 Level Cleveland Center
Tue 10:27:41 PM 42.2078 -77.8097 89° East 521 600 24,500 -1,033 Descending Cleveland Center
Tue 10:28:42 PM 42.2097 -77.6217 89° East 513 590 22,900 -1,659 Descending Cleveland Center
Tue 10:29:44 PM 42.2106 -77.4167 90° East 461 531 21,100 -1,561 Descending Cleveland Center
Tue 10:30:45 PM 42.2111 -77.2575 90° East 431 496 19,700 -1,475 Descending Cleveland Center
Tue 10:31:46 PM 42.2117 -77.1042 90° East 416 479 18,100 -1,328 Descending Cleveland Center
Tue 10:32:47 PM 42.2122 -76.9561 90° East 402 463 17,000 -1,230 Descending Cleveland Center
Tue 10:33:48 PM 42.2117 -76.8092 90° East 395 455 15,600 -1,475 Descending Cleveland Center
Tue 10:34:49 PM 42.2128 -76.6656 89° East 389 448 14,000 -1,525 Descending Cleveland Center
Tue 10:35:50 PM 42.2283 -76.5275 81° East 373 429 12,500 -1,672 Descending Cleveland Center
Tue 10:36:51 PM 42.2417 -76.3914 82° East 353 406 10,600 -2,164 Descending Cleveland Center
Tue 10:37:52 PM 42.2533 -76.2772 82° East 315 362 8,100 -2,656 Descending Cleveland Center
Tue 10:38:53 PM 42.2744 -76.1747 74° East 295 339 5,200 -2,361 Descending Cleveland Center
Tue 10:39:54 PM 42.3142 -76.0914 57° Northeast 274 315 3,300 -984 Descending Cleveland Center
Tue 10:40:55 PM 42.2792 -76.0450 136° Southeast 231 266 3,200 -347 Descending Cleveland Center
Tue 10:41:55 PM 42.2489 -76.0150 144° Southeast 137 158 2,600 -400 Descending New York Center
Tue 10:42:55 PM 42.2211 -75.9819 139° Southeast 122 140 2,400 -200 Descending New York Center

Login

Don't have an account? Register now (free) for customized features, flight alerts, and more!